createdAt,value
2017-10-30T00:00:13.120Z,5.21
2017-10-30T00:01:23.828Z,5.26
2017-10-30T00:02:34.313Z,5.16
2017-10-30T00:03:44.796Z,5.25
2017-10-30T00:04:55.286Z,5.16
2017-10-30T00:06:05.769Z,5.16
2017-10-30T00:07:16.256Z,5.18
2017-10-30T00:08:26.690Z,5.18
2017-10-30T00:09:37.180Z,5.22
2017-10-30T00:10:47.661Z,5.21
2017-10-30T00:11:58.273Z,5.21
2017-10-30T00:13:08.717Z,5.07
2017-10-30T00:14:18.766Z,5.11
2017-10-30T00:15:29.234Z,5.11
2017-10-30T00:16:39.694Z,5.18
2017-10-30T00:17:50.164Z,5.11
2017-10-30T00:19:00.635Z,5.13
2017-10-30T00:20:11.342Z,5.18
2017-10-30T00:21:21.837Z,5.13
2017-10-30T00:22:32.303Z,5.18
2017-10-30T00:23:42.791Z,5.16
2017-10-30T00:24:53.295Z,5.16
2017-10-30T00:26:03.790Z,5.04
2017-10-30T00:27:14.286Z,5.11
2017-10-30T00:28:24.724Z,5.1
2017-10-30T00:29:35.289Z,4.98
2017-10-30T00:30:45.780Z,5.08
2017-10-30T00:31:56.271Z,5.06
2017-10-30T00:33:06.919Z,5.04
2017-10-30T00:34:17.399Z,5.13
2017-10-30T00:35:27.915Z,5.07
2017-10-30T00:36:38.397Z,5.03
2017-10-30T00:37:48.989Z,5.07
2017-10-30T00:38:59.538Z,5.11
2017-10-30T00:40:10.228Z,5.11
2017-10-30T00:41:20.703Z,5.03
2017-10-30T00:42:31.157Z,5.04
2017-10-30T00:43:41.608Z,5.03
2017-10-30T00:44:52.130Z,5.06
2017-10-30T00:46:02.587Z,5.04
2017-10-30T00:47:13.041Z,5.07
2017-10-30T00:48:23.500Z,5.04
2017-10-30T00:49:34.081Z,5.04
2017-10-30T00:50:44.541Z,5.03
2017-10-30T00:51:55.078Z,5.04
2017-10-30T00:53:05.540Z,4.98
2017-10-30T00:54:15.985Z,4.99
2017-10-30T00:55:26.457Z,5
2017-10-30T00:56:36.937Z,5.1
2017-10-30T00:57:47.429Z,5.04
2017-10-30T00:58:57.913Z,5.03
2017-10-30T01:00:08.390Z,5
2017-10-30T01:01:18.523Z,5.06
2017-10-30T01:02:29.025Z,5.04
2017-10-30T01:03:39.577Z,4.95
2017-10-30T01:04:50.050Z,5.06
2017-10-30T01:06:00.504Z,5.03
2017-10-30T01:07:10.966Z,4.98
2017-10-30T01:08:21.568Z,4.95
2017-10-30T01:09:32.133Z,4.92
2017-10-30T01:10:42.559Z,5
2017-10-30T01:11:52.991Z,4.96
2017-10-30T01:13:03.465Z,4.95
2017-10-30T01:14:14.155Z,4.99
2017-10-30T01:15:24.306Z,4.96
2017-10-30T01:16:34.428Z,4.9
2017-10-30T01:17:44.883Z,4.95
2017-10-30T01:18:55.352Z,4.95
2017-10-30T01:20:05.827Z,4.93
2017-10-30T01:21:16.513Z,4.98
2017-10-30T01:22:26.968Z,4.95
2017-10-30T01:23:37.400Z,4.93
2017-10-30T01:24:47.892Z,4.95
2017-10-30T01:25:58.366Z,4.9
2017-10-30T01:27:08.398Z,4.98
2017-10-30T01:28:18.837Z,4.92
2017-10-30T01:29:29.355Z,4.95
2017-10-30T01:30:39.529Z,4.95
2017-10-30T01:31:49.996Z,4.93
2017-10-30T01:33:00.461Z,4.88
2017-10-30T01:34:10.925Z,4.96
2017-10-30T01:35:21.481Z,4.93
2017-10-30T01:36:31.938Z,4.95
2017-10-30T01:37:42.400Z,4.93
2017-10-30T01:38:52.893Z,4.9
2017-10-30T01:40:03.424Z,4.92
2017-10-30T01:41:13.913Z,4.95
2017-10-30T01:42:24.388Z,4.92
2017-10-30T01:43:34.825Z,4.92
2017-10-30T01:44:45.267Z,4.92
2017-10-30T01:45:55.860Z,4.9
2017-10-30T01:47:06.373Z,4.92
2017-10-30T01:48:16.872Z,4.93
2017-10-30T01:49:27.044Z,4.92
2017-10-30T01:50:37.501Z,4.9
2017-10-30T01:51:47.601Z,4.85
2017-10-30T01:52:58.164Z,4.95
2017-10-30T01:54:08.965Z,4.95
2017-10-30T01:55:19.491Z,4.98
2017-10-30T01:56:29.954Z,4.96
2017-10-30T01:57:40.419Z,4.92
2017-10-30T01:58:50.969Z,4.92
2017-10-30T02:00:01.420Z,4.92
2017-10-30T02:01:11.849Z,4.98
2017-10-30T02:02:22.315Z,4.85
2017-10-30T02:03:32.434Z,4.98
2017-10-30T02:04:43.131Z,4.86
2017-10-30T02:05:53.693Z,4.86
2017-10-30T02:07:04.138Z,4.81
2017-10-30T02:08:14.798Z,4.8
2017-10-30T02:09:25.267Z,4.81
2017-10-30T02:10:35.861Z,4.81
2017-10-30T02:11:46.601Z,4.81
2017-10-30T02:12:57.062Z,4.85
2017-10-30T02:14:07.647Z,4.83
2017-10-30T02:15:18.312Z,4.83
2017-10-30T02:16:28.743Z,4.86
2017-10-30T02:17:39.280Z,4.81
2017-10-30T02:18:49.484Z,4.86
2017-10-30T02:19:59.954Z,4.86
2017-10-30T02:21:10.425Z,4.8
2017-10-30T02:22:20.925Z,4.85
2017-10-30T02:23:31.404Z,4.74
2017-10-30T02:24:41.877Z,4.7
2017-10-30T02:25:52.346Z,4.73
2017-10-30T02:27:02.791Z,4.7
2017-10-30T02:28:13.234Z,4.78
2017-10-30T02:29:23.716Z,4.77
2017-10-30T02:30:34.148Z,4.78
2017-10-30T02:31:44.582Z,4.73
2017-10-30T02:32:54.712Z,4.73
2017-10-30T02:34:05.218Z,4.74
2017-10-30T02:35:15.683Z,4.71
2017-10-30T02:36:25.840Z,4.8
2017-10-30T02:37:36.338Z,4.78
2017-10-30T02:38:46.790Z,4.7
2017-10-30T02:39:57.279Z,4.7
2017-10-30T02:41:07.784Z,4.8
2017-10-30T02:42:18.270Z,4.8
2017-10-30T02:43:28.704Z,4.7
2017-10-30T02:44:39.151Z,4.67
2017-10-30T02:45:49.607Z,4.71
2017-10-30T02:47:00.160Z,4.65
2017-10-30T02:48:10.343Z,4.71
2017-10-30T02:49:20.798Z,4.68
2017-10-30T02:50:31.130Z,4.68
2017-10-30T02:51:41.573Z,4.63
2017-10-30T02:52:52.052Z,4.56
2017-10-30T02:54:02.175Z,4.6
2017-10-30T02:55:12.318Z,4.62
2017-10-30T02:56:22.770Z,4.67
2017-10-30T02:57:33.208Z,4.65
2017-10-30T02:58:43.765Z,4.62
2017-10-30T02:59:54.220Z,4.67
2017-10-30T03:01:04.712Z,4.55
2017-10-30T03:02:15.165Z,4.49
2017-10-30T03:03:25.627Z,4.53
2017-10-30T03:04:36.077Z,4.52
2017-10-30T03:05:46.549Z,4.52
2017-10-30T03:06:56.984Z,4.56
2017-10-30T03:08:07.676Z,4.52
2017-10-30T03:09:18.217Z,4.53
2017-10-30T03:10:28.686Z,4.52
2017-10-30T03:11:40.273Z,4.6
2017-10-30T03:12:50.698Z,4.49
2017-10-30T03:14:01.143Z,4.5
2017-10-30T03:15:11.706Z,4.52
2017-10-30T03:16:22.170Z,4.55
2017-10-30T03:17:32.630Z,4.52
2017-10-30T03:18:42.760Z,4.46
2017-10-30T03:19:53.232Z,4.46
2017-10-30T03:21:03.703Z,4.41
2017-10-30T03:22:14.135Z,4.46
2017-10-30T03:23:24.330Z,4.43
2017-10-30T03:24:34.810Z,4.41
2017-10-30T03:25:44.950Z,4.4
2017-10-30T03:26:55.385Z,4.41
2017-10-30T03:28:05.906Z,4.4
2017-10-30T03:29:16.625Z,4.38
2017-10-30T03:30:27.090Z,4.37
2017-10-30T03:31:38.188Z,4.38
2017-10-30T03:32:48.292Z,4.37
2017-10-30T03:33:58.762Z,4.31
2017-10-30T03:35:09.208Z,4.41
2017-10-30T03:36:19.732Z,4.33
2017-10-30T03:37:30.021Z,4.3
2017-10-30T03:38:40.516Z,4.33
2017-10-30T03:39:50.990Z,4.3
2017-10-30T03:41:01.429Z,4.3
2017-10-30T03:42:11.909Z,4.27
2017-10-30T03:43:22.028Z,4.3
2017-10-30T03:44:32.484Z,4.28
2017-10-30T03:45:42.959Z,4.23
2017-10-30T03:46:53.450Z,4.3
2017-10-30T03:48:03.967Z,4.28
2017-10-30T03:49:14.525Z,4.28
2017-10-30T03:50:24.983Z,4.33
2017-10-30T03:51:34.338Z,4.27
2017-10-30T03:52:44.894Z,4.36
2017-10-30T03:53:55.050Z,4.25
2017-10-30T03:55:05.505Z,4.28
2017-10-30T03:56:15.958Z,4.27
2017-10-30T03:57:26.243Z,4.3
2017-10-30T03:58:36.690Z,4.31
2017-10-30T03:59:47.367Z,4.28
2017-10-30T04:00:57.837Z,4.28
2017-10-30T04:02:08.503Z,4.25
2017-10-30T04:03:19.202Z,4.22
2017-10-30T04:04:29.774Z,4.22
2017-10-30T04:05:40.459Z,4.27
2017-10-30T04:06:50.880Z,4.28
2017-10-30T04:08:01.337Z,4.28
2017-10-30T04:09:11.820Z,4.22
2017-10-30T04:10:21.920Z,4.25
2017-10-30T04:11:32.369Z,4.28
2017-10-30T04:12:42.799Z,4.25
2017-10-30T04:13:53.267Z,4.28
2017-10-30T04:15:03.764Z,4.34
2017-10-30T04:16:14.189Z,4.23
2017-10-30T04:17:24.718Z,4.25
2017-10-30T04:18:35.208Z,4.33
2017-10-30T04:19:45.671Z,4.3
2017-10-30T04:20:56.139Z,4.34
2017-10-30T04:22:05.961Z,4.27
2017-10-30T04:23:16.406Z,4.33
2017-10-30T04:24:26.890Z,4.36
2017-10-30T04:25:37.347Z,4.27
2017-10-30T04:26:47.815Z,4.33
2017-10-30T04:27:58.544Z,4.34
2017-10-30T04:29:09.000Z,4.31
2017-10-30T04:30:19.495Z,4.33
2017-10-30T04:31:29.977Z,4.34
2017-10-30T04:32:40.454Z,4.27
2017-10-30T04:33:50.929Z,4.34
2017-10-30T04:35:01.395Z,4.25
2017-10-30T04:36:11.894Z,4.4
2017-10-30T04:37:22.517Z,4.34
2017-10-30T04:38:32.959Z,4.33
2017-10-30T04:39:43.526Z,4.3
2017-10-30T04:40:53.995Z,4.27
2017-10-30T04:42:04.467Z,4.3
2017-10-30T04:43:14.952Z,4.36
2017-10-30T04:44:25.432Z,4.33
2017-10-30T04:45:35.893Z,4.28
2017-10-30T04:46:46.528Z,4.27
2017-10-30T04:47:56.682Z,4.28
2017-10-30T04:49:07.294Z,4.28
2017-10-30T04:50:17.730Z,4.25
2017-10-30T04:51:28.187Z,4.23
2017-10-30T04:52:38.640Z,4.23
2017-10-30T04:53:49.094Z,4.19
2017-10-30T04:54:59.539Z,4.23
2017-10-30T04:56:10.069Z,4.28
2017-10-30T04:57:20.527Z,4.18
2017-10-30T04:58:31.019Z,4.16
2017-10-30T04:59:41.487Z,4.23
2017-10-30T05:00:51.916Z,4.2
2017-10-30T05:02:02.360Z,4.18
2017-10-30T05:03:12.852Z,4.2
2017-10-30T05:04:23.278Z,4.2
2017-10-30T05:05:33.738Z,4.2
2017-10-30T05:06:44.380Z,4.23
2017-10-30T05:07:54.830Z,4.16
2017-10-30T05:09:05.265Z,4.25
2017-10-30T05:10:15.705Z,4.27
2017-10-30T05:11:25.870Z,4.2
2017-10-30T05:12:36.341Z,4.27
2017-10-30T05:13:46.814Z,4.23
2017-10-30T05:14:57.250Z,4.19
2017-10-30T05:16:07.749Z,4.16
2017-10-30T05:17:18.246Z,4.13
2017-10-30T05:18:28.741Z,4.15
2017-10-30T05:19:39.224Z,4.22
2017-10-30T05:20:49.676Z,4.22
2017-10-30T05:22:00.126Z,4.18
2017-10-30T05:23:10.626Z,4.13
2017-10-30T05:24:20.954Z,4.09
2017-10-30T05:25:31.410Z,4.16
2017-10-30T05:26:41.869Z,4.2
2017-10-30T05:27:51.990Z,4.2
2017-10-30T05:29:02.682Z,4.13
2017-10-30T05:30:13.127Z,4.22
2017-10-30T05:31:23.611Z,4.16
2017-10-30T05:32:34.083Z,4.16
2017-10-30T05:33:44.511Z,4.09
2017-10-30T05:34:54.941Z,4.22
2017-10-30T05:36:05.386Z,4.2
2017-10-30T05:37:15.849Z,4.05
2017-10-30T05:38:26.323Z,4.2
2017-10-30T05:39:36.877Z,4.04
2017-10-30T05:40:46.878Z,4.05
2017-10-30T05:41:57.369Z,4.19
2017-10-30T05:43:07.868Z,4.13
2017-10-30T05:44:18.336Z,4.19
2017-10-30T05:45:28.408Z,4.11
2017-10-30T05:46:38.890Z,4.08
2017-10-30T05:47:49.331Z,4.09
2017-10-30T05:48:59.896Z,4.15
2017-10-30T05:50:10.418Z,4.13
2017-10-30T05:51:20.930Z,4.12
2017-10-30T05:52:31.394Z,4.08
2017-10-30T05:53:41.973Z,4.01
2017-10-30T05:54:52.404Z,4.12
2017-10-30T05:56:02.847Z,4.18
2017-10-30T05:57:13.365Z,4.2
2017-10-30T05:58:23.874Z,4.12
2017-10-30T05:59:34.311Z,4.11
2017-10-30T06:00:44.792Z,4.16
2017-10-30T06:01:55.016Z,4.05
2017-10-30T06:03:05.551Z,4
2017-10-30T06:04:15.984Z,4.04
2017-10-30T06:05:26.446Z,4.01
2017-10-30T06:06:36.931Z,4.12
2017-10-30T06:07:47.386Z,4.04
2017-10-30T06:08:57.969Z,4.03
2017-10-30T06:10:08.342Z,4.09
2017-10-30T06:11:19.346Z,3.98
2017-10-30T06:12:29.781Z,4.01
2017-10-30T06:13:40.299Z,4.01
2017-10-30T06:14:50.732Z,3.97
2017-10-30T06:16:01.255Z,4.03
2017-10-30T06:17:11.707Z,4.04
2017-10-30T06:18:22.200Z,4.11
2017-10-30T06:19:32.702Z,4.13
2017-10-30T06:20:43.154Z,4.15
2017-10-30T06:21:53.607Z,4.04
2017-10-30T06:23:04.123Z,4
2017-10-30T06:24:14.604Z,4.01
2017-10-30T06:25:25.104Z,4.01
2017-10-30T06:26:35.561Z,4.13
2017-10-30T06:27:46.065Z,4.13
2017-10-30T06:28:56.507Z,4
2017-10-30T06:30:07.031Z,4.12
2017-10-30T06:31:17.510Z,4.15
2017-10-30T06:32:28.079Z,4.08
2017-10-30T06:33:38.522Z,4.05
2017-10-30T06:34:49.002Z,4.18
2017-10-30T06:35:59.052Z,4.13
2017-10-30T06:37:09.500Z,4.12
2017-10-30T06:38:19.945Z,4.23
2017-10-30T06:39:30.427Z,4.6
2017-10-30T06:40:40.895Z,4.93
2017-10-30T06:41:51.623Z,5.26
2017-10-30T06:43:02.113Z,5.56
2017-10-30T06:44:12.568Z,5.86
2017-10-30T06:45:23.080Z,6.2
2017-10-30T06:46:33.539Z,6.63
2017-10-30T06:47:43.997Z,7.03
2017-10-30T06:48:54.509Z,7.4
2017-10-30T06:50:04.953Z,7.74
2017-10-30T06:51:15.413Z,7.97
2017-10-30T06:52:25.124Z,8.42
2017-10-30T06:53:35.571Z,8.6
2017-10-30T06:54:46.163Z,8.9
2017-10-30T06:55:56.635Z,9.15
2017-10-30T06:57:07.091Z,9.34
2017-10-30T06:58:17.534Z,9.56
2017-10-30T06:59:27.683Z,9.77
2017-10-30T07:00:38.271Z,10.05
2017-10-30T07:01:48.719Z,10.18
2017-10-30T07:02:59.194Z,10.29
2017-10-30T07:04:09.641Z,10.43
2017-10-30T07:05:20.112Z,10.57
2017-10-30T07:06:30.148Z,10.76
2017-10-30T07:07:41.010Z,10.95
2017-10-30T07:08:51.493Z,11.3
2017-10-30T07:10:01.956Z,11.35
2017-10-30T07:11:12.427Z,11.52
2017-10-30T07:12:22.923Z,11.65
2017-10-30T07:13:33.386Z,11.76
2017-10-30T07:14:43.854Z,12.02
2017-10-30T07:15:54.299Z,12.05
2017-10-30T07:17:05.022Z,12.24
2017-10-30T07:18:15.521Z,12.39
2017-10-30T07:19:26.010Z,12.38
2017-10-30T07:20:36.476Z,12.55
2017-10-30T07:21:47.190Z,12.68
2017-10-30T07:22:57.668Z,12.82
2017-10-30T07:24:08.315Z,12.85
2017-10-30T07:25:18.659Z,13.03
2017-10-30T07:26:29.141Z,13.26
2017-10-30T07:27:39.573Z,13.52
2017-10-30T07:28:50.078Z,13.64
2017-10-30T07:30:00.567Z,13.69
2017-10-30T07:31:11.086Z,13.74
2017-10-30T07:32:21.783Z,13.89
2017-10-30T07:33:32.311Z,14.02
2017-10-30T07:34:42.769Z,14
2017-10-30T07:35:53.221Z,14.1
2017-10-30T07:37:03.352Z,14.09
2017-10-30T07:38:13.821Z,14.26
2017-10-30T07:39:24.364Z,14.39
2017-10-30T07:40:34.876Z,14.65
2017-10-30T07:41:45.380Z,14.74
2017-10-30T07:42:55.911Z,15.06
2017-10-30T07:44:06.380Z,14.96
2017-10-30T07:45:16.533Z,14.93
2017-10-30T07:46:26.980Z,15.08
2017-10-30T07:47:37.467Z,15.21
2017-10-30T07:48:47.980Z,15.45
2017-10-30T07:49:58.469Z,15.58
2017-10-30T07:51:08.958Z,15.58
2017-10-30T07:52:19.438Z,15.58
2017-10-30T07:53:30.177Z,15.73
2017-10-30T07:54:40.664Z,15.69
2017-10-30T07:55:51.141Z,15.73
2017-10-30T07:57:01.768Z,15.99
2017-10-30T07:58:12.224Z,16.16
2017-10-30T07:59:22.717Z,16.17
2017-10-30T08:00:33.496Z,16.17
2017-10-30T08:01:43.955Z,16.42
2017-10-30T08:02:54.455Z,16.36
2017-10-30T08:04:04.947Z,16.47
2017-10-30T08:05:15.657Z,16.57
2017-10-30T08:06:26.223Z,16.65
2017-10-30T08:07:36.729Z,16.76
2017-10-30T08:08:46.904Z,16.76
2017-10-30T08:09:57.383Z,16.86
2017-10-30T08:11:07.871Z,17.02
2017-10-30T08:12:18.559Z,17.2
2017-10-30T08:13:29.123Z,17.08
2017-10-30T08:14:39.667Z,17.2
2017-10-30T08:15:50.413Z,17.19
2017-10-30T08:17:00.867Z,17.24
2017-10-30T08:18:11.384Z,17.28
2017-10-30T08:19:21.869Z,17.17
2017-10-30T08:20:32.336Z,17.19
2017-10-30T08:21:42.897Z,17.24
2017-10-30T08:22:53.457Z,17.21
2017-10-30T08:24:03.916Z,17.43
2017-10-30T08:25:14.231Z,17.58
2017-10-30T08:26:24.740Z,17.97
2017-10-30T08:27:35.260Z,18.12
2017-10-30T08:28:45.726Z,18.15
2017-10-30T08:29:56.322Z,18.31
2017-10-30T08:31:06.829Z,18.41
2017-10-30T08:32:17.297Z,18.41
2017-10-30T08:33:27.763Z,18.4
2017-10-30T08:34:38.253Z,18.53
2017-10-30T08:35:48.728Z,18.57
2017-10-30T08:36:59.197Z,18.38
2017-10-30T08:38:09.678Z,18.32
2017-10-30T08:39:20.190Z,18.41
2017-10-30T08:40:30.682Z,18.52
2017-10-30T08:41:41.185Z,18.69
2017-10-30T08:42:51.660Z,18.47
2017-10-30T08:44:01.805Z,18.34
2017-10-30T08:45:12.304Z,18.23
2017-10-30T08:46:22.799Z,18.1
2017-10-30T08:47:33.325Z,18.34
2017-10-30T08:48:43.833Z,18.32
2017-10-30T08:49:54.328Z,18.44
2017-10-30T08:51:04.783Z,18.32
2017-10-30T08:52:15.534Z,18.46
2017-10-30T08:53:26.276Z,18.35
2017-10-30T08:54:36.859Z,18.4
2017-10-30T08:55:47.592Z,18.56
2017-10-30T08:56:58.113Z,18.62
2017-10-30T08:58:08.599Z,18.71
2017-10-30T08:59:18.820Z,18.8
2017-10-30T09:00:29.324Z,18.82
2017-10-30T09:01:39.386Z,18.95
2017-10-30T09:02:49.894Z,19.1
2017-10-30T09:04:00.366Z,19.16
2017-10-30T09:05:10.972Z,19.15
2017-10-30T09:06:21.442Z,19.15
2017-10-30T09:07:31.958Z,19.1
2017-10-30T09:08:42.516Z,19.05
2017-10-30T09:09:53.066Z,18.98
2017-10-30T09:11:03.800Z,19.05
2017-10-30T09:12:14.321Z,19.09
2017-10-30T09:13:24.798Z,19.15
2017-10-30T09:14:35.398Z,19.09
2017-10-30T09:15:46.118Z,19.23
2017-10-30T09:16:56.578Z,19.63
2017-10-30T09:18:07.094Z,19.56
2017-10-30T09:19:17.814Z,19.5
2017-10-30T09:20:28.313Z,19.5
2017-10-30T09:21:38.806Z,19.45
2017-10-30T09:22:49.382Z,19.4
2017-10-30T09:23:59.869Z,19.34
2017-10-30T09:25:10.489Z,19.4
2017-10-30T09:26:21.004Z,19.3
2017-10-30T09:27:31.494Z,19.21
2017-10-30T09:28:42.045Z,19.13
2017-10-30T09:29:52.715Z,18.97
2017-10-30T09:31:03.304Z,18.62
2017-10-30T09:32:13.831Z,18.4
2017-10-30T09:33:56.231Z,18.38
2017-10-30T09:35:06.734Z,18.56
2017-10-30T09:36:17.293Z,18.57
2017-10-30T09:37:27.682Z,18.42
2017-10-30T09:38:38.169Z,18.31
2017-10-30T09:39:48.702Z,18.26
2017-10-30T09:40:59.194Z,18.12
2017-10-30T09:42:09.700Z,17.82
2017-10-30T09:43:20.313Z,17.83
2017-10-30T09:44:30.783Z,17.89
2017-10-30T09:45:41.256Z,17.72
2017-10-30T09:46:51.835Z,17.61
2017-10-30T09:48:02.347Z,17.7
2017-10-30T09:49:12.881Z,17.67
2017-10-30T09:50:23.411Z,17.77
2017-10-30T09:51:33.894Z,17.98
2017-10-30T09:52:44.620Z,18.05
2017-10-30T09:53:55.126Z,18.31
2017-10-30T09:55:05.609Z,18.35
2017-10-30T09:56:16.120Z,18.38
2017-10-30T09:57:26.686Z,18.38
2017-10-30T09:58:37.189Z,18.42
2017-10-30T09:59:47.729Z,18.59
2017-10-30T10:00:58.232Z,18.56
2017-10-30T10:02:08.737Z,18.62
2017-10-30T10:03:19.247Z,18.56
2017-10-30T10:04:29.726Z,18.73
2017-10-30T10:05:40.532Z,18.97
2017-10-30T10:06:51.060Z,19.23
2017-10-30T10:08:01.388Z,19.1
2017-10-30T10:09:11.885Z,19.15
2017-10-30T10:10:22.367Z,19.16
2017-10-30T10:11:32.923Z,18.98
2017-10-30T10:12:43.409Z,18.94
2017-10-30T10:13:53.962Z,18.84
2017-10-30T10:15:04.498Z,18.9
2017-10-30T10:16:15.104Z,18.69
2017-10-30T10:17:25.618Z,18.62
2017-10-30T10:18:36.094Z,18.69
2017-10-30T10:19:46.591Z,18.65
2017-10-30T10:20:57.082Z,18.72
2017-10-30T10:22:07.572Z,18.97
2017-10-30T10:23:18.052Z,19.18
2017-10-30T10:24:28.575Z,19.28
2017-10-30T10:25:39.076Z,19.27
2017-10-30T10:26:49.265Z,19.19
2017-10-30T10:27:59.749Z,19.19
2017-10-30T10:29:10.243Z,19.13
2017-10-30T10:30:20.837Z,19
2017-10-30T10:31:31.371Z,18.98
2017-10-30T10:32:41.861Z,19
2017-10-30T10:33:52.428Z,19.03
2017-10-30T10:35:02.909Z,18.94
2017-10-30T10:36:13.479Z,18.94
2017-10-30T10:37:24.990Z,18.86
2017-10-30T10:38:35.512Z,18.87
2017-10-30T10:39:46.053Z,18.9
2017-10-30T10:40:56.567Z,18.71
2017-10-30T10:42:07.083Z,18.52
2017-10-30T10:43:17.592Z,18.38
2017-10-30T10:44:28.118Z,18.2
2017-10-30T10:45:38.676Z,18.09
2017-10-30T10:46:49.225Z,18.05
2017-10-30T10:47:59.784Z,17.98
2017-10-30T10:49:10.352Z,18.01
2017-10-30T10:50:20.893Z,18.16
2017-10-30T10:51:31.435Z,18.15
2017-10-30T10:52:41.930Z,18.22
2017-10-30T10:53:52.405Z,18.15
2017-10-30T10:55:03.905Z,18.13
2017-10-30T10:56:14.473Z,18.15
2017-10-30T10:57:25.002Z,18.01
2017-10-30T10:58:35.523Z,18.04
2017-10-30T10:59:46.149Z,18.16
2017-10-30T11:00:56.625Z,18.19
2017-10-30T11:02:07.355Z,18.2
2017-10-30T11:03:17.826Z,18.1
2017-10-30T11:04:28.002Z,18.05
2017-10-30T11:05:38.702Z,17.97
2017-10-30T11:06:49.279Z,17.92
2017-10-30T11:07:59.859Z,17.85
2017-10-30T11:09:10.383Z,18
2017-10-30T11:10:20.972Z,18.01
2017-10-30T11:11:31.476Z,18.13
2017-10-30T11:12:41.970Z,18.22
2017-10-30T11:13:52.484Z,18.2
2017-10-30T11:15:03.015Z,18.3
2017-10-30T11:16:13.550Z,18.26
2017-10-30T11:17:24.029Z,18.31
2017-10-30T11:18:34.850Z,18.38
2017-10-30T11:19:45.357Z,18.34
2017-10-30T11:20:55.939Z,18.4
2017-10-30T11:22:06.422Z,18.41
2017-10-30T11:23:16.688Z,18.28
2017-10-30T11:24:27.174Z,18.22
2017-10-30T11:25:37.680Z,18.28
2017-10-30T11:26:48.177Z,18.26
2017-10-30T11:27:58.697Z,18.28
2017-10-30T11:29:08.868Z,18.16
2017-10-30T11:30:19.346Z,18.19
2017-10-30T11:31:29.532Z,18.26
2017-10-30T11:32:40.199Z,18.25
2017-10-30T11:33:50.708Z,18.26
2017-10-30T11:35:01.239Z,18.28
2017-10-30T11:36:11.980Z,18.16
2017-10-30T11:37:22.445Z,18.02
2017-10-30T11:38:32.940Z,17.85
2017-10-30T11:39:43.491Z,17.77
2017-10-30T11:40:54.009Z,17.86
2017-10-30T11:42:04.511Z,17.98
2017-10-30T11:43:15.033Z,17.94
2017-10-30T11:44:25.525Z,17.98
2017-10-30T11:45:36.013Z,17.94
2017-10-30T11:46:46.484Z,17.89
2017-10-30T11:47:57.004Z,17.91
2017-10-30T11:49:07.562Z,18.02
2017-10-30T11:50:18.056Z,18.05
2017-10-30T11:51:28.699Z,18
2017-10-30T11:52:39.199Z,18.12
2017-10-30T11:53:49.679Z,18.05
2017-10-30T11:55:00.319Z,18.13
2017-10-30T11:56:10.812Z,18.23
2017-10-30T11:57:21.344Z,18.38
2017-10-30T11:58:31.879Z,18.15
2017-10-30T11:59:42.411Z,18.15
2017-10-30T12:00:53.138Z,18.09
2017-10-30T12:02:03.667Z,17.94
2017-10-30T12:03:14.141Z,17.87
2017-10-30T12:04:24.690Z,18.01
2017-10-30T12:05:35.177Z,17.89
2017-10-30T12:06:45.740Z,17.73
2017-10-30T12:07:56.244Z,17.6
2017-10-30T12:09:06.755Z,17.47
2017-10-30T12:10:17.466Z,17.52
2017-10-30T12:11:27.950Z,17.4
2017-10-30T12:12:38.726Z,17.21
2017-10-30T12:13:49.270Z,17.16
2017-10-30T12:14:59.928Z,17.11
2017-10-30T12:16:10.422Z,17.06
2017-10-30T12:17:20.555Z,16.96
2017-10-30T12:18:31.136Z,16.98
2017-10-30T12:19:41.856Z,16.99
2017-10-30T12:20:52.360Z,16.94
2017-10-30T12:22:02.437Z,16.9
2017-10-30T12:23:12.527Z,16.91
2017-10-30T12:24:23.024Z,16.84
2017-10-30T12:25:33.214Z,16.87
2017-10-30T12:26:43.717Z,16.91
2017-10-30T12:27:54.265Z,16.96
2017-10-30T12:29:04.766Z,16.9
2017-10-30T12:30:15.388Z,16.94
2017-10-30T12:31:25.950Z,16.87
2017-10-30T12:32:36.453Z,16.72
2017-10-30T12:33:46.621Z,16.75
2017-10-30T12:34:57.426Z,16.61
2017-10-30T12:36:07.927Z,16.54
2017-10-30T12:37:18.412Z,16.32
2017-10-30T12:38:28.955Z,16.17
2017-10-30T12:39:39.518Z,16.09
2017-10-30T12:40:50.035Z,15.95
2017-10-30T12:42:00.551Z,15.88
2017-10-30T12:43:11.086Z,15.79
2017-10-30T12:44:21.134Z,15.69
2017-10-30T12:45:31.872Z,15.54
2017-10-30T12:46:42.383Z,15.53
2017-10-30T12:47:52.989Z,15.24
2017-10-30T12:49:03.566Z,15.29
2017-10-30T12:50:14.038Z,15.13
2017-10-30T12:51:24.220Z,15.14
2017-10-30T12:52:34.827Z,15.11
2017-10-30T12:53:45.392Z,14.91
2017-10-30T12:54:55.898Z,14.9
2017-10-30T12:56:07.538Z,14.9
2017-10-30T12:57:18.101Z,14.75
2017-10-30T12:58:28.256Z,14.56
2017-10-30T12:59:38.740Z,14.54
2017-10-30T13:00:48.916Z,14.26
2017-10-30T13:01:59.484Z,14.24
2017-10-30T13:03:10.097Z,14.21
2017-10-30T13:04:20.655Z,14.09
2017-10-30T13:05:32.224Z,14.06
2017-10-30T13:06:42.729Z,14.16
2017-10-30T13:07:53.392Z,14.02
2017-10-30T13:09:03.608Z,13.76
2017-10-30T13:10:14.120Z,13.67
2017-10-30T13:11:24.647Z,13.59
2017-10-30T13:12:35.236Z,13.52
2017-10-30T13:13:45.768Z,13.41
2017-10-30T13:14:56.270Z,13.36
2017-10-30T13:16:06.735Z,13.34
2017-10-30T13:17:16.930Z,13.22
2017-10-30T13:18:27.422Z,13.21
2017-10-30T13:19:37.923Z,13.13
2017-10-30T13:20:48.468Z,13.04
2017-10-30T13:21:58.943Z,12.97
2017-10-30T13:23:09.460Z,12.84
2017-10-30T13:24:19.688Z,12.75
2017-10-30T13:25:30.209Z,12.56
2017-10-30T13:26:40.711Z,12.41
2017-10-30T13:27:51.292Z,12.45
2017-10-30T13:29:01.795Z,12.26
2017-10-30T13:30:12.307Z,12.22
2017-10-30T13:31:22.572Z,12.08
2017-10-30T13:32:33.122Z,11.87
2017-10-30T13:33:43.630Z,11.71
2017-10-30T13:34:54.343Z,11.61
2017-10-30T13:36:04.488Z,11.5
2017-10-30T13:37:14.550Z,11.39
2017-10-30T13:38:25.258Z,11.39
2017-10-30T13:39:35.773Z,11.28
2017-10-30T13:40:46.282Z,11.15
2017-10-30T13:41:56.855Z,11.12
2017-10-30T13:43:07.110Z,11.05
2017-10-30T13:44:17.670Z,10.85
2017-10-30T13:45:28.159Z,10.85
2017-10-30T13:46:38.762Z,10.77
2017-10-30T13:47:49.261Z,10.75
2017-10-30T13:48:59.827Z,10.73
2017-10-30T13:50:10.613Z,10.76
2017-10-30T13:51:21.117Z,10.69
2017-10-30T13:52:31.602Z,10.69
2017-10-30T13:53:41.816Z,10.58
2017-10-30T13:54:52.275Z,10.58
2017-10-30T13:56:02.749Z,10.57
2017-10-30T13:57:13.237Z,10.48
2017-10-30T13:58:23.694Z,10.43
2017-10-30T13:59:34.141Z,10.47
2017-10-30T14:00:44.610Z,10.39
2017-10-30T14:01:54.776Z,10.42
2017-10-30T14:03:05.272Z,10.37
2017-10-30T14:04:15.797Z,10.36
2017-10-30T14:05:25.926Z,10.43
2017-10-30T14:06:36.432Z,10.42
2017-10-30T14:07:46.896Z,10.3
2017-10-30T14:08:57.382Z,10.29
2017-10-30T14:10:07.903Z,10.33
2017-10-30T14:11:18.377Z,10.24
2017-10-30T14:12:29.541Z,10.19
2017-10-30T14:13:40.092Z,10.32
2017-10-30T14:14:50.562Z,10.34
2017-10-30T14:16:01.118Z,10.27
2017-10-30T14:17:11.733Z,10.33
2017-10-30T14:18:21.887Z,10.32
2017-10-30T14:19:32.428Z,10.27
2017-10-30T14:20:42.950Z,10.21
2017-10-30T14:21:53.515Z,10.24
2017-10-30T14:23:03.981Z,10.22
2017-10-30T14:24:14.467Z,10.22
2017-10-30T14:25:24.972Z,10.11
2017-10-30T14:26:35.597Z,10.17
2017-10-30T14:27:46.171Z,10.21
2017-10-30T14:28:57.653Z,10.21
2017-10-30T14:30:08.165Z,10.19
2017-10-30T14:31:18.863Z,10.17
2017-10-30T14:32:29.355Z,10.13
2017-10-30T14:33:39.876Z,10
2017-10-30T14:34:50.426Z,10.03
2017-10-30T14:36:00.946Z,9.96
2017-10-30T14:37:11.513Z,9.91
2017-10-30T14:38:22.005Z,9.92
2017-10-30T14:39:32.493Z,9.88
2017-10-30T14:40:43.018Z,9.81
2017-10-30T14:41:53.730Z,9.75
2017-10-30T14:43:04.433Z,9.71
2017-10-30T14:44:14.615Z,9.62
2017-10-30T14:45:24.826Z,9.65
2017-10-30T14:46:35.453Z,9.6
2017-10-30T14:47:45.611Z,9.55
2017-10-30T14:48:56.114Z,9.56
2017-10-30T14:50:06.640Z,9.56
2017-10-30T14:51:17.264Z,9.56
2017-10-30T14:52:27.955Z,9.5
2017-10-30T14:53:38.461Z,9.53
2017-10-30T14:54:48.996Z,9.4
2017-10-30T14:55:59.143Z,9.4
2017-10-30T14:57:09.610Z,9.29
2017-10-30T14:58:20.103Z,9.27
2017-10-30T14:59:30.661Z,9.26
2017-10-30T15:00:41.280Z,9.17
2017-10-30T15:01:51.759Z,9.27
2017-10-30T15:03:02.466Z,9.26
2017-10-30T15:04:12.946Z,9.16
2017-10-30T15:05:23.440Z,9.15
2017-10-30T15:06:34.073Z,9.19
2017-10-30T15:07:44.519Z,9.2
2017-10-30T15:08:55.018Z,9.16
2017-10-30T15:10:05.696Z,9.15
2017-10-30T15:11:15.526Z,9.12
2017-10-30T15:12:25.991Z,9.09
2017-10-30T15:13:36.135Z,9.02
2017-10-30T15:14:46.664Z,9.01
2017-10-30T15:15:57.123Z,9.01
2017-10-30T15:17:07.646Z,8.98
2017-10-30T15:18:18.334Z,8.97
2017-10-30T15:19:28.864Z,8.97
2017-10-30T15:20:39.364Z,8.89
2017-10-30T15:21:49.914Z,8.92
2017-10-30T15:23:00.449Z,8.93
2017-10-30T15:24:10.911Z,8.84
2017-10-30T15:25:21.434Z,8.92
2017-10-30T15:26:32.066Z,8.84
2017-10-30T15:27:42.350Z,8.83